Time;durP1;ratioP1;P1;durP2;ratioP2;P2;SDS_P1;SDS_P2;PMS_P1;PMS_P2;Temp;Humidity;BMP_temperature;BMP_pressure;BME280_temperature;BME280_humidity;BME280_pressure;Samples;Min_cycle;Max_cycle;Signal;HPM_P1;HPM_P2
2023/07/12 00:00:45;;;;;;;9.10;1.83;;;;;;;;;;5018303;28;20652;-60
2023/07/12 00:03:13;;;;;;;3.90;1.55;;;;;;;;;;5022488;28;20180;-63
2023/07/12 00:05:43;;;;;;;5.28;1.58;;;;;;;;;;5018741;28;20060;-61
2023/07/12 00:08:17;;;;;;;6.40;1.20;;;;;;;;;;5016122;28;20136;-62
2023/07/12 00:10:46;;;;;;;6.57;2.00;;;;;;;;;;5016947;28;20073;-63
2023/07/12 00:13:24;;;;;;;4.35;1.50;;;;;;;;;;5023222;28;20049;-60
2023/07/12 00:15:54;;;;;;;4.85;1.38;;;;;;;;;;5021011;28;20046;-61
2023/07/12 00:18:23;;;;;;;2.15;1.40;;;;;;;;;;5021386;28;20042;-59
2023/07/12 00:20:53;;;;;;;8.23;1.90;;;;;;;;;;5020796;28;20077;-61
2023/07/12 00:23:22;;;;;;;3.30;1.40;;;;;;;;;;5023885;28;20597;-64
2023/07/12 00:25:50;;;;;;;3.92;1.88;;;;;;;;;;5018988;28;20126;-59
2023/07/12 00:28:21;;;;;;;2.95;1.45;;;;;;;;;;5021736;28;20049;-60
2023/07/12 00:30:50;;;;;;;5.82;1.80;;;;;;;;;;5018891;28;20045;-64
2023/07/12 00:33:19;;;;;;;5.22;2.15;;;;;;;;;;5020875;28;20045;-60
2023/07/12 00:35:48;;;;;;;6.22;1.98;;;;;;;;;;5014653;28;20108;-63
2023/07/12 00:38:18;;;;;;;4.70;1.80;;;;;;;;;;5023962;28;20044;-60
2023/07/12 00:41:00;;;;;;;7.20;2.10;;;;;;;;;;5017205;28;20050;-62
2023/07/12 00:43:31;;;;;;;4.00;1.52;;;;;;;;;;5017895;28;20558;-61
2023/07/12 00:46:01;;;;;;;7.65;2.22;;;;;;;;;;5019313;28;20103;-60
2023/07/12 00:48:29;;;;;;;3.53;1.38;;;;;;;;;;5021268;28;20081;-60
2023/07/12 00:50:58;;;;;;;2.67;1.60;;;;;;;;;;5022518;28;20042;-61
2023/07/12 00:53:36;;;;;;;5.03;1.88;;;;;;;;;;5021780;28;20049;-70
2023/07/12 00:56:06;;;;;;;5.90;2.53;;;;;;;;;;5019095;28;20041;-61
2023/07/12 00:58:36;;;;;;;3.38;1.63;;;;;;;;;;5019884;28;20089;-61
2023/07/12 01:01:05;;;;;;;4.38;1.90;;;;;;;;;;5018003;28;20592;-69
2023/07/12 01:03:35;;;;;;;3.17;1.45;;;;;;;;;;5044113;23;20053;-59
2023/07/12 01:06:04;;;;;;;6.68;2.00;;;;;;;;;;5017827;28;20060;-69
2023/07/12 01:08:34;;;;;;;3.92;1.77;;;;;;;;;;5025336;28;20461;-59
2023/07/12 01:11:03;;;;;;;5.43;1.90;;;;;;;;;;5024263;28;20127;-64
2023/07/12 01:13:33;;;;;;;2.30;1.25;;;;;;;;;;5018872;28;20051;-62
2023/07/12 01:16:03;;;;;;;4.82;1.95;;;;;;;;;;5023885;28;20552;-59
2023/07/12 01:18:31;;;;;;;2.10;1.40;;;;;;;;;;5019577;28;20414;-68
2023/07/12 01:21:09;;;;;;;2.90;1.60;;;;;;;;;;5021039;28;20521;-63
2023/07/12 01:23:39;;;;;;;3.83;1.80;;;;;;;;;;5023612;28;21201;-70
2023/07/12 01:26:17;;;;;;;4.15;1.95;;;;;;;;;;5020058;28;20053;-59
2023/07/12 01:28:45;;;;;;;2.55;1.60;;;;;;;;;;5021968;28;20095;-60
2023/07/12 01:31:13;;;;;;;5.20;1.70;;;;;;;;;;5019415;28;20501;-62
2023/07/12 01:33:42;;;;;;;5.13;1.80;;;;;;;;;;5021546;28;20069;-62
2023/07/12 01:36:12;;;;;;;3.85;1.45;;;;;;;;;;5021690;28;20045;-59
2023/07/12 01:38:40;;;;;;;4.30;2.15;;;;;;;;;;5024519;28;20057;-59
2023/07/12 01:41:09;;;;;;;5.93;2.10;;;;;;;;;;5021138;28;20045;-59
2023/07/12 01:43:37;;;;;;;7.25;1.70;;;;;;;;;;5024445;28;20056;-59
2023/07/12 01:46:06;;;;;;;2.95;1.50;;;;;;;;;;5019659;28;20131;-70
2023/07/12 01:48:34;;;;;;;4.90;1.67;;;;;;;;;;5022283;28;20132;-59
2023/07/12 01:51:03;;;;;;;4.25;1.75;;;;;;;;;;5019961;28;20076;-66
2023/07/12 01:53:33;;;;;;;3.75;1.60;;;;;;;;;;5018472;28;20312;-60
2023/07/12 01:56:01;;;;;;;5.50;1.80;;;;;;;;;;5019975;28;20054;-59
2023/07/12 01:58:30;;;;;;;4.20;1.63;;;;;;;;;;5021272;28;20103;-59
2023/07/12 02:00:59;;;;;;;2.60;1.50;;;;;;;;;;5020717;28;20127;-70
2023/07/12 02:03:28;;;;;;;5.05;1.70;;;;;;;;;;5022129;28;20051;-65
2023/07/12 02:05:57;;;;;;;6.22;1.77;;;;;;;;;;5021879;28;20052;-58
2023/07/12 02:08:26;;;;;;;6.47;1.63;;;;;;;;;;5022871;28;20045;-63
2023/07/12 02:10:55;;;;;;;3.95;1.60;;;;;;;;;;5017804;28;20379;-60
2023/07/12 02:13:24;;;;;;;5.60;1.90;;;;;;;;;;5018978;28;20053;-59
2023/07/12 02:15:52;;;;;;;1.98;1.20;;;;;;;;;;5024204;28;20045;-70
2023/07/12 02:18:21;;;;;;;5.00;1.83;;;;;;;;;;5022589;28;20073;-60
2023/07/12 02:20:50;;;;;;;3.38;1.60;;;;;;;;;;5024127;28;20529;-60
2023/07/12 02:23:18;;;;;;;2.53;1.33;;;;;;;;;;5021823;28;20104;-60
2023/07/12 02:25:46;;;;;;;3.40;2.00;;;;;;;;;;5022076;28;20584;-60
2023/07/12 02:28:16;;;;;;;4.10;1.70;;;;;;;;;;5021177;28;20445;-59
2023/07/12 02:30:45;;;;;;;5.03;1.60;;;;;;;;;;5026043;28;20576;-59
2023/07/12 02:33:13;;;;;;;2.33;1.30;;;;;;;;;;5023559;28;20057;-62
2023/07/12 02:35:46;;;;;;;2.53;1.60;;;;;;;;;;5018461;28;20506;-59
2023/07/12 02:38:15;;;;;;;3.30;1.40;;;;;;;;;;5021702;28;20049;-68
2023/07/12 02:40:43;;;;;;;4.65;1.80;;;;;;;;;;5023525;28;20042;-70
2023/07/12 02:43:11;;;;;;;4.03;1.77;;;;;;;;;;5022793;28;20503;-59
2023/07/12 02:45:41;;;;;;;4.20;1.73;;;;;;;;;;5023595;28;20045;-61
2023/07/12 02:48:09;;;;;;;3.67;1.42;;;;;;;;;;5023378;28;20064;-62
2023/07/12 02:50:38;;;;;;;2.35;1.60;;;;;;;;;;5023194;28;20083;-60
2023/07/12 02:53:15;;;;;;;3.20;1.55;;;;;;;;;;5021560;28;20049;-69
2023/07/12 02:55:43;;;;;;;3.60;1.60;;;;;;;;;;5018908;28;20411;-61
2023/07/12 02:58:11;;;;;;;4.13;1.90;;;;;;;;;;5015872;28;20049;-67
2023/07/12 03:00:41;;;;;;;4.82;1.52;;;;;;;;;;5015845;28;20076;-62
2023/07/12 03:03:10;;;;;;;2.92;1.45;;;;;;;;;;5014857;28;20103;-60
2023/07/12 03:05:38;;;;;;;2.47;1.60;;;;;;;;;;5019594;28;20050;-60
2023/07/12 03:08:07;;;;;;;5.10;1.70;;;;;;;;;;5020647;28;20045;-67
2023/07/12 03:10:37;;;;;;;2.92;1.38;;;;;;;;;;5014938;28;20584;-59
2023/07/12 03:13:05;;;;;;;7.45;1.80;;;;;;;;;;5017144;28;20427;-64
2023/07/12 03:15:38;;;;;;;3.42;1.80;;;;;;;;;;5014796;28;20045;-60
2023/07/12 03:18:08;;;;;;;3.65;1.63;;;;;;;;;;5016507;28;20465;-69
2023/07/12 03:20:36;;;;;;;2.38;1.45;;;;;;;;;;5022569;28;20045;-60
2023/07/12 03:23:05;;;;;;;4.18;1.60;;;;;;;;;;5018073;28;20042;-61
2023/07/12 03:25:33;;;;;;;2.10;1.45;;;;;;;;;;5015798;28;20077;-61
2023/07/12 03:28:01;;;;;;;5.80;1.90;;;;;;;;;;5018207;28;20053;-63
2023/07/12 03:30:30;;;;;;;3.25;1.80;;;;;;;;;;5018267;28;20143;-59
2023/07/12 03:32:58;;;;;;;2.95;1.58;;;;;;;;;;5014547;28;20486;-67
2023/07/12 03:35:29;;;;;;;5.95;1.80;;;;;;;;;;5020270;28;20623;-60
2023/07/12 03:37:58;;;;;;;7.00;1.90;;;;;;;;;;5015136;28;20046;-66
2023/07/12 03:40:26;;;;;;;6.20;1.70;;;;;;;;;;5013129;28;20041;-60
2023/07/12 03:42:55;;;;;;;3.63;1.80;;;;;;;;;;5018457;28;20072;-61
2023/07/12 03:45:23;;;;;;;5.55;1.95;;;;;;;;;;5017150;28;20045;-60
2023/07/12 03:47:52;;;;;;;3.60;2.10;;;;;;;;;;5017106;28;20085;-60
2023/07/12 03:50:20;;;;;;;3.28;1.75;;;;;;;;;;5016182;28;20049;-64
2023/07/12 03:52:50;;;;;;;8.00;1.92;;;;;;;;;;5015349;28;20406;-63
2023/07/12 03:55:18;;;;;;;6.07;1.85;;;;;;;;;;5015008;28;20069;-70
2023/07/12 03:57:47;;;;;;;6.93;2.10;;;;;;;;;;5011493;28;20176;-62
2023/07/12 04:00:16;;;;;;;4.03;1.90;;;;;;;;;;5009297;28;21244;-59
2023/07/12 04:02:44;;;;;;;4.47;2.40;;;;;;;;;;5012443;28;20410;-62
2023/07/12 04:05:13;;;;;;;3.97;2.30;;;;;;;;;;5011013;28;20060;-70
2023/07/12 04:07:43;;;;;;;4.03;2.03;;;;;;;;;;5013298;28;20139;-61
2023/07/12 04:10:13;;;;;;;7.97;2.42;;;;;;;;;;5020270;28;20049;-61
2023/07/12 04:12:41;;;;;;;6.07;1.90;;;;;;;;;;5024935;28;21007;-61
2023/07/12 04:15:10;;;;;;;7.88;2.33;;;;;;;;;;5023386;28;20072;-69
2023/07/12 04:17:38;;;;;;;9.73;2.30;;;;;;;;;;5024472;28;20049;-66
2023/07/12 04:20:07;;;;;;;6.15;2.63;;;;;;;;;;5022077;28;20426;-65
2023/07/12 04:22:35;;;;;;;4.20;1.95;;;;;;;;;;5022706;28;20049;-59
2023/07/12 04:25:05;;;;;;;5.45;2.30;;;;;;;;;;5025190;28;20049;-63
2023/07/12 04:27:36;;;;;;;4.32;1.95;;;;;;;;;;5022732;28;20073;-60
2023/07/12 04:30:06;;;;;;;5.32;2.00;;;;;;;;;;5017405;28;20083;-62
2023/07/12 04:32:34;;;;;;;7.32;2.13;;;;;;;;;;5019709;28;20099;-68
2023/07/12 04:35:03;;;;;;;5.03;2.40;;;;;;;;;;5019806;28;20669;-60
2023/07/12 04:37:32;;;;;;;5.57;2.25;;;;;;;;;;5022123;28;20833;-60
2023/07/12 04:40:00;;;;;;;4.22;2.85;;;;;;;;;;5021778;28;20572;-65
2023/07/12 04:42:28;;;;;;;5.32;2.50;;;;;;;;;;5023235;28;20077;-68
2023/07/12 04:44:58;;;;;;;6.97;2.25;;;;;;;;;;5020172;28;20053;-67
2023/07/12 04:47:26;;;;;;;7.50;2.55;;;;;;;;;;5017087;28;20498;-62
2023/07/12 04:49:55;;;;;;;7.00;2.10;;;;;;;;;;5014485;28;20053;-62
2023/07/12 04:52:23;;;;;;;5.25;2.20;;;;;;;;;;5019449;28;20561;-60
2023/07/12 04:54:57;;;;;;;5.97;2.25;;;;;;;;;;5015392;28;20543;-60
2023/07/12 04:57:25;;;;;;;4.43;2.63;;;;;;;;;;5013814;28;20099;-70
2023/07/12 04:59:54;;;;;;;5.50;2.38;;;;;;;;;;5019731;28;20084;-59
2023/07/12 05:02:23;;;;;;;5.60;2.47;;;;;;;;;;5021112;28;20431;-61
2023/07/12 05:04:52;;;;;;;4.15;2.35;;;;;;;;;;5016536;28;20045;-68
2023/07/12 05:07:20;;;;;;;7.38;2.50;;;;;;;;;;5020591;28;20564;-60
2023/07/12 05:09:49;;;;;;;4.20;2.50;;;;;;;;;;5024441;28;20076;-64
2023/07/12 05:12:17;;;;;;;6.55;2.10;;;;;;;;;;5023368;28;20101;-66
2023/07/12 05:14:45;;;;;;;5.78;2.50;;;;;;;;;;5019396;28;20058;-60
2023/07/12 05:17:14;;;;;;;4.22;2.30;;;;;;;;;;5016251;28;20041;-63
2023/07/12 05:19:44;;;;;;;5.07;2.53;;;;;;;;;;5017328;28;20537;-60
2023/07/12 05:22:12;;;;;;;5.70;2.60;;;;;;;;;;5025458;28;20136;-60
2023/07/12 05:24:41;;;;;;;5.97;2.45;;;;;;;;;;5018110;28;20057;-62
2023/07/12 05:27:09;;;;;;;4.43;2.30;;;;;;;;;;5022941;28;20135;-60
2023/07/12 05:29:39;;;;;;;3.40;2.30;;;;;;;;;;5020016;28;20389;-60
2023/07/12 05:32:07;;;;;;;5.22;2.60;;;;;;;;;;5019154;28;20042;-62
2023/07/12 05:34:36;;;;;;;8.15;1.98;;;;;;;;;;5015021;28;20041;-63
2023/07/12 05:37:06;;;;;;;4.90;2.47;;;;;;;;;;5019197;28;20046;-61
2023/07/12 05:39:34;;;;;;;6.20;2.65;;;;;;;;;;5019862;28;20065;-61
2023/07/12 05:42:03;;;;;;;4.97;2.42;;;;;;;;;;5021124;28;20220;-62
2023/07/12 05:44:31;;;;;;;7.18;2.28;;;;;;;;;;5017169;28;20462;-61
2023/07/12 05:47:00;;;;;;;6.60;2.60;;;;;;;;;;5023913;28;20100;-62
2023/07/12 05:49:28;;;;;;;3.92;2.42;;;;;;;;;;5020639;28;20418;-60
2023/07/12 05:51:59;;;;;;;3.95;2.50;;;;;;;;;;5018167;28;20509;-64
2023/07/12 05:54:30;;;;;;;5.80;2.70;;;;;;;;;;5024715;28;20063;-61
2023/07/12 05:56:59;;;;;;;4.07;2.15;;;;;;;;;;5024761;28;20522;-60
2023/07/12 05:59:27;;;;;;;4.82;2.30;;;;;;;;;;5019704;28;20111;-61
2023/07/12 06:01:56;;;;;;;5.55;2.33;;;;;;;;;;5022884;28;20104;-60
2023/07/12 06:04:24;;;;;;;4.55;2.40;;;;;;;;;;5017091;28;20119;-67
2023/07/12 06:06:53;;;;;;;4.82;2.33;;;;;;;;;;5021245;28;20041;-62
2023/07/12 06:09:22;;;;;;;6.13;2.67;;;;;;;;;;5021690;28;20132;-60
2023/07/12 06:11:51;;;;;;;6.93;2.55;;;;;;;;;;5024498;28;20057;-61
2023/07/12 06:14:20;;;;;;;5.20;2.58;;;;;;;;;;5017865;28;20466;-61
2023/07/12 06:16:48;;;;;;;7.35;2.28;;;;;;;;;;5015754;28;20722;-60
2023/07/12 06:19:17;;;;;;;6.45;2.60;;;;;;;;;;5019814;28;20087;-66
2023/07/12 06:21:45;;;;;;;4.40;1.88;;;;;;;;;;5018232;28;20095;-68
2023/07/12 06:24:13;;;;;;;3.75;2.22;;;;;;;;;;5019485;28;20553;-60
2023/07/12 06:26:42;;;;;;;5.53;1.95;;;;;;;;;;5014069;28;20081;-61
2023/07/12 06:29:11;;;;;;;4.95;3.08;;;;;;;;;;5018003;28;20049;-62
2023/07/12 06:31:40;;;;;;;3.35;1.70;;;;;;;;;;5015409;28;20506;-63
2023/07/12 06:34:09;;;;;;;6.07;2.55;;;;;;;;;;5020538;28;20103;-63
2023/07/12 06:36:38;;;;;;;3.53;2.00;;;;;;;;;;5021798;28;20057;-60
2023/07/12 06:39:06;;;;;;;4.70;1.45;;;;;;;;;;5019816;28;20445;-67
2023/07/12 06:41:35;;;;;;;11.52;1.70;;;;;;;;;;5015932;28;20045;-66
2023/07/12 06:44:03;;;;;;;14.38;2.10;;;;;;;;;;5023344;28;20461;-60
2023/07/12 06:46:33;;;;;;;6.53;2.25;;;;;;;;;;5014868;28;20053;-60
2023/07/12 06:49:02;;;;;;;4.65;1.92;;;;;;;;;;5021122;28;20465;-59
2023/07/12 06:51:31;;;;;;;7.38;1.70;;;;;;;;;;5020269;28;20425;-67
2023/07/12 06:53:59;;;;;;;6.80;1.80;;;;;;;;;;5022308;28;20077;-60
2023/07/12 06:56:28;;;;;;;4.93;2.33;;;;;;;;;;5022971;28;20042;-61
2023/07/12 06:58:56;;;;;;;5.28;1.98;;;;;;;;;;5022569;28;20046;-61
2023/07/12 07:01:24;;;;;;;6.10;2.22;;;;;;;;;;5018715;28;20050;-60
2023/07/12 07:03:55;;;;;;;12.05;2.20;;;;;;;;;;5017359;28;20053;-60
2023/07/12 07:06:24;;;;;;;5.40;2.10;;;;;;;;;;5018633;28;20041;-69
2023/07/12 07:08:53;;;;;;;2.35;1.73;;;;;;;;;;5022300;28;20095;-64
2023/07/12 07:11:21;;;;;;;3.97;1.80;;;;;;;;;;5023261;28;20570;-62
2023/07/12 07:13:50;;;;;;;3.13;1.70;;;;;;;;;;5019102;28;20137;-60
2023/07/12 07:16:19;;;;;;;3.42;1.73;;;;;;;;;;5015714;28;20124;-61
2023/07/12 07:18:49;;;;;;;4.28;1.30;;;;;;;;;;5022015;28;20063;-62
2023/07/12 07:21:19;;;;;;;5.95;1.60;;;;;;;;;;5020594;28;20136;-62
2023/07/12 07:23:47;;;;;;;3.50;1.20;;;;;;;;;;5021904;28;20454;-61
2023/07/12 07:26:16;;;;;;;3.35;1.10;;;;;;;;;;5020657;28;20353;-60
2023/07/12 07:28:44;;;;;;;2.22;0.77;;;;;;;;;;5025224;28;20049;-64
2023/07/12 07:31:13;;;;;;;3.55;1.48;;;;;;;;;;5020143;28;20049;-59
2023/07/12 07:33:42;;;;;;;1.80;1.10;;;;;;;;;;5021505;28;20623;-60
2023/07/12 07:36:14;;;;;;;1.55;1.10;;;;;;;;;;5021773;28;20056;-63
2023/07/12 07:38:44;;;;;;;4.25;1.20;;;;;;;;;;5022233;28;20057;-60
2023/07/12 07:41:14;;;;;;;2.80;1.00;;;;;;;;;;5021780;28;20045;-66
2023/07/12 07:43:44;;;;;;;5.10;1.25;;;;;;;;;;5020000;28;20046;-63
2023/07/12 07:46:13;;;;;;;1.48;0.73;;;;;;;;;;5016178;28;20686;-61
2023/07/12 07:48:41;;;;;;;2.60;0.88;;;;;;;;;;5022337;28;20490;-63
2023/07/12 07:51:10;;;;;;;1.40;0.80;;;;;;;;;;5022234;28;20091;-61
2023/07/12 07:53:38;;;;;;;3.60;0.70;;;;;;;;;;5019862;28;20041;-64
2023/07/12 07:56:08;;;;;;;1.77;0.80;;;;;;;;;;5017489;28;20096;-61
2023/07/12 07:58:37;;;;;;;1.75;0.80;;;;;;;;;;5018944;28;20112;-65
2023/07/12 08:01:06;;;;;;;4.22;0.90;;;;;;;;;;5019829;28;20061;-59
2023/07/12 08:03:35;;;;;;;1.80;0.80;;;;;;;;;;5023809;28;20461;-60
2023/07/12 08:06:04;;;;;;;2.75;1.08;;;;;;;;;;5020831;28;20107;-64
2023/07/12 08:08:33;;;;;;;1.42;0.80;;;;;;;;;;5020326;28;20401;-63
2023/07/12 08:11:02;;;;;;;1.73;0.90;;;;;;;;;;5020438;28;20061;-71
2023/07/12 08:13:32;;;;;;;3.08;0.75;;;;;;;;;;5016943;28;20581;-70
2023/07/12 08:16:00;;;;;;;1.05;0.90;;;;;;;;;;5017790;28;20088;-61
2023/07/12 08:18:29;;;;;;;3.03;1.00;;;;;;;;;;5022111;28;20041;-68
2023/07/12 08:20:58;;;;;;;3.58;0.88;;;;;;;;;;5015708;28;20148;-62
2023/07/12 08:23:27;;;;;;;4.65;0.82;;;;;;;;;;5020989;28;20042;-60
2023/07/12 08:25:56;;;;;;;2.80;0.90;;;;;;;;;;5020473;28;20056;-61
2023/07/12 08:28:25;;;;;;;4.45;0.90;;;;;;;;;;5019193;28;20054;-59
2023/07/12 08:30:54;;;;;;;3.80;0.90;;;;;;;;;;5019269;28;20061;-62
2023/07/12 08:33:23;;;;;;;3.03;0.90;;;;;;;;;;5017038;28;20560;-68
2023/07/12 08:35:51;;;;;;;1.58;0.80;;;;;;;;;;5020847;28;20465;-63
2023/07/12 08:38:20;;;;;;;3.63;0.73;;;;;;;;;;5021421;28;20101;-61
2023/07/12 08:40:49;;;;;;;3.90;0.93;;;;;;;;;;5020911;28;20048;-64
2023/07/12 08:43:18;;;;;;;3.25;0.80;;;;;;;;;;5019098;28;20046;-63
2023/07/12 08:45:48;;;;;;;2.42;0.80;;;;;;;;;;5017984;28;20470;-72
2023/07/12 08:48:19;;;;;;;2.38;1.20;;;;;;;;;;5020036;28;20053;-65
2023/07/12 08:50:48;;;;;;;1.83;0.93;;;;;;;;;;5023119;28;20068;-64
2023/07/12 08:53:18;;;;;;;2.95;0.80;;;;;;;;;;5022796;28;20400;-61
2023/07/12 08:55:46;;;;;;;2.15;0.98;;;;;;;;;;5018389;28;20503;-64
2023/07/12 08:58:18;;;;;;;3.60;0.80;;;;;;;;;;5022796;28;20045;-64
2023/07/12 09:00:48;;;;;;;1.83;1.00;;;;;;;;;;5020122;28;20100;-61
2023/07/12 09:03:16;;;;;;;3.50;1.00;;;;;;;;;;5020450;28;20532;-69
2023/07/12 09:05:46;;;;;;;2.45;0.93;;;;;;;;;;5024170;28;20455;-62
2023/07/12 09:08:18;;;;;;;1.38;0.80;;;;;;;;;;5022652;28;20046;-65
2023/07/12 09:10:48;;;;;;;1.15;0.75;;;;;;;;;;5021404;28;20073;-68
2023/07/12 09:13:18;;;;;;;2.97;0.93;;;;;;;;;;5024091;28;20056;-61
2023/07/12 09:15:48;;;;;;;1.27;0.73;;;;;;;;;;5022265;28;20049;-61
2023/07/12 09:18:26;;;;;;;2.60;0.80;;;;;;;;;;5022183;28;20051;-63
2023/07/12 09:20:56;;;;;;;1.10;0.63;;;;;;;;;;5022098;28;20037;-62
2023/07/12 09:23:24;;;;;;;1.48;0.77;;;;;;;;;;5024373;28;20041;-61
2023/07/12 09:25:55;;;;;;;2.45;1.13;;;;;;;;;;5017872;28;20108;-62
2023/07/12 09:28:24;;;;;;;2.95;0.80;;;;;;;;;;5021513;28;20052;-62
2023/07/12 09:30:52;;;;;;;4.55;1.17;;;;;;;;;;5020446;28;20084;-64
2023/07/12 09:33:24;;;;;;;0.77;0.75;;;;;;;;;;5022436;28;21429;-69
2023/07/12 09:35:52;;;;;;;5.78;1.00;;;;;;;;;;5022479;28;20060;-67
2023/07/12 09:38:24;;;;;;;3.63;1.15;;;;;;;;;;5022529;28;20057;-63
2023/07/12 09:40:53;;;;;;;3.25;1.08;;;;;;;;;;5023588;28;20737;-62
2023/07/12 09:43:22;;;;;;;1.48;0.65;;;;;;;;;;5024531;28;20077;-61
2023/07/12 09:45:56;;;;;;;2.42;1.30;;;;;;;;;;5023572;28;20099;-68
2023/07/12 09:48:42;;;;;;;4.35;0.98;;;;;;;;;;5022138;28;20054;-61
2023/07/12 09:51:27;;;;;;;1.30;0.80;;;;;;;;;;5024579;28;20041;-68
2023/07/12 09:53:59;;;;;;;1.95;1.10;;;;;;;;;;5024163;28;20049;-62
2023/07/12 09:56:30;;;;;;;2.67;1.15;;;;;;;;;;5021628;28;20062;-64
2023/07/12 09:59:03;;;;;;;1.85;0.70;;;;;;;;;;5019191;28;20094;-66
2023/07/12 10:01:35;;;;;;;1.70;1.10;;;;;;;;;;5016748;28;20053;-64
2023/07/12 10:04:10;;;;;;;4.43;1.67;;;;;;;;;;5019365;28;20136;-62
2023/07/12 10:06:40;;;;;;;2.22;1.20;;;;;;;;;;5022954;28;20071;-63
2023/07/12 10:09:13;;;;;;;2.58;1.38;;;;;;;;;;5021586;28;20045;-65
2023/07/12 10:11:44;;;;;;;3.75;1.20;;;;;;;;;;5020363;28;20057;-63
2023/07/12 10:14:15;;;;;;;1.52;0.90;;;;;;;;;;5022289;28;20053;-73
2023/07/12 10:16:46;;;;;;;3.10;1.05;;;;;;;;;;5019519;28;20073;-62
2023/07/12 10:19:17;;;;;;;2.20;1.17;;;;;;;;;;5021909;28;20550;-68
2023/07/12 10:21:46;;;;;;;2.28;1.10;;;;;;;;;;5023470;28;20045;-64
2023/07/12 10:24:17;;;;;;;3.65;1.10;;;;;;;;;;5021106;28;20095;-61
2023/07/12 10:26:46;;;;;;;1.25;1.05;;;;;;;;;;5022724;28;20045;-60
2023/07/12 10:29:19;;;;;;;1.58;1.13;;;;;;;;;;5019402;28;20048;-64
2023/07/12 10:31:50;;;;;;;2.30;1.50;;;;;;;;;;5019115;28;20075;-61
2023/07/12 10:34:22;;;;;;;1.95;1.15;;;;;;;;;;5024451;28;20934;-61
2023/07/12 10:36:52;;;;;;;2.53;0.98;;;;;;;;;;5020801;28;20054;-62
2023/07/12 10:39:22;;;;;;;6.90;1.90;;;;;;;;;;5019892;28;20075;-61
2023/07/12 10:41:52;;;;;;;2.22;1.30;;;;;;;;;;5022624;28;20517;-62
2023/07/12 10:44:21;;;;;;;2.60;1.35;;;;;;;;;;5019185;28;20057;-69
2023/07/12 10:46:52;;;;;;;2.30;1.08;;;;;;;;;;5022465;28;20107;-62
2023/07/12 10:49:22;;;;;;;1.75;1.08;;;;;;;;;;5019091;28;20140;-62
2023/07/12 10:52:05;;;;;;;1.98;1.20;;;;;;;;;;5024805;28;20050;-60
2023/07/12 10:54:47;;;;;;;3.80;1.42;;;;;;;;;;5022697;28;20079;-62
2023/07/12 10:57:27;;;;;;;1.73;1.45;;;;;;;;;;5019056;28;20077;-65
2023/07/12 11:00:00;;;;;;;4.30;1.42;;;;;;;;;;5019100;28;20481;-63
2023/07/12 11:02:29;;;;;;;2.60;1.00;;;;;;;;;;5019535;28;20127;-65
2023/07/12 11:04:58;;;;;;;2.40;1.35;;;;;;;;;;5023659;28;20098;-61
2023/07/12 11:07:37;;;;;;;4.55;1.30;;;;;;;;;;5021047;28;20076;-62
2023/07/12 11:10:24;;;;;;;3.05;1.80;;;;;;;;;;5020447;28;20090;-61
2023/07/12 11:12:54;;;;;;;8.95;1.38;;;;;;;;;;5022333;28;20045;-61
2023/07/12 11:15:23;;;;;;;3.35;1.77;;;;;;;;;;5019061;28;20042;-61
2023/07/12 11:18:00;;;;;;;4.22;1.70;;;;;;;;;;5018555;28;20696;-71
2023/07/12 11:20:32;;;;;;;7.28;1.70;;;;;;;;;;5023049;28;20041;-61
2023/07/12 11:23:02;;;;;;;4.10;1.70;;;;;;;;;;5024642;28;20124;-62
2023/07/12 11:25:40;;;;;;;4.90;1.70;;;;;;;;;;5021761;28;20111;-65
2023/07/12 11:28:28;;;;;;;2.75;1.60;;;;;;;;;;5021583;28;20107;-63
2023/07/12 11:31:14;;;;;;;2.67;1.35;;;;;;;;;;5016423;28;20100;-63
2023/07/12 11:33:46;;;;;;;2.97;1.52;;;;;;;;;;5019725;28;20045;-66
2023/07/12 11:36:19;;;;;;;6.32;1.50;;;;;;;;;;5017483;28;20564;-70
2023/07/12 11:38:49;;;;;;;8.15;1.92;;;;;;;;;;5020389;28;20050;-61
2023/07/12 11:41:22;;;;;;;5.30;1.50;;;;;;;;;;5019842;28;20080;-61
2023/07/12 11:43:59;;;;;;;2.38;1.40;;;;;;;;;;5017063;28;20481;-69
2023/07/12 11:46:29;;;;;;;1.95;1.60;;;;;;;;;;5016660;28;20088;-72
2023/07/12 11:49:01;;;;;;;3.83;1.98;;;;;;;;;;5014059;28;20549;-63
2023/07/12 11:51:35;;;;;;;3.25;1.52;;;;;;;;;;5015565;28;20077;-66
2023/07/12 11:54:05;;;;;;;3.78;1.80;;;;;;;;;;5019782;28;20053;-66
2023/07/12 11:56:41;;;;;;;2.95;1.75;;;;;;;;;;5016822;28;20054;-62
2023/07/12 11:59:14;;;;;;;2.20;1.65;;;;;;;;;;5016246;28;20362;-64
2023/07/12 12:01:44;;;;;;;3.92;1.80;;;;;;;;;;5017416;28;20568;-64
2023/07/12 12:04:19;;;;;;;3.28;1.85;;;;;;;;;;5020286;28;20494;-62
2023/07/12 12:06:48;;;;;;;2.90;1.77;;;;;;;;;;5020518;28;20056;-68
2023/07/12 12:09:17;;;;;;;4.13;1.80;;;;;;;;;;5021744;28;20079;-63
2023/07/12 12:11:46;;;;;;;2.75;1.70;;;;;;;;;;5023232;28;20089;-70
2023/07/12 12:14:20;;;;;;;5.88;1.88;;;;;;;;;;5022944;28;20107;-62
2023/07/12 12:16:52;;;;;;;5.13;2.45;;;;;;;;;;5022302;28;20084;-62
2023/07/12 12:19:21;;;;;;;3.35;2.40;;;;;;;;;;5022296;28;20128;-63
2023/07/12 12:21:51;;;;;;;3.50;2.08;;;;;;;;;;5025748;28;20052;-64
2023/07/12 12:24:21;;;;;;;4.65;2.33;;;;;;;;;;5022764;28;20502;-63
2023/07/12 12:26:52;;;;;;;7.18;2.58;;;;;;;;;;5021242;28;20054;-64
2023/07/12 12:29:23;;;;;;;2.90;2.15;;;;;;;;;;5024276;28;20069;-62
2023/07/12 12:31:53;;;;;;;4.65;2.03;;;;;;;;;;5025146;28;20049;-63
2023/07/12 12:34:23;;;;;;;4.47;2.13;;;;;;;;;;5021830;28;20099;-62
2023/07/12 12:36:58;;;;;;;6.75;2.70;;;;;;;;;;5024480;28;20069;-63
2023/07/12 12:39:27;;;;;;;4.00;2.85;;;;;;;;;;5025309;28;20787;-61
2023/07/12 12:41:58;;;;;;;5.28;2.55;;;;;;;;;;5027266;28;20121;-62
2023/07/12 12:44:29;;;;;;;5.43;2.22;;;;;;;;;;5027299;28;20057;-68
2023/07/12 12:46:58;;;;;;;3.80;2.22;;;;;;;;;;5023052;28;20038;-69
2023/07/12 12:49:31;;;;;;;3.08;2.05;;;;;;;;;;5027549;28;20072;-66
2023/07/12 12:52:19;;;;;;;5.03;2.50;;;;;;;;;;5024779;28;20085;-65
2023/07/12 12:54:51;;;;;;;5.88;2.10;;;;;;;;;;5024626;28;20077;-67
2023/07/12 12:57:29;;;;;;;6.03;2.30;;;;;;;;;;5023383;28;20123;-62
2023/07/12 13:00:00;;;;;;;5.28;2.38;;;;;;;;;;5021629;28;20565;-62
2023/07/12 13:02:32;;;;;;;5.35;2.75;;;;;;;;;;5023540;28;20061;-62
2023/07/12 13:05:03;;;;;;;4.45;2.53;;;;;;;;;;5023245;28;20041;-65
2023/07/12 13:07:51;;;;;;;8.90;2.35;;;;;;;;;;5021330;28;20049;-62
2023/07/12 13:10:41;;;;;;;6.57;3.33;;;;;;;;;;5028378;28;20505;-61
2023/07/12 13:13:17;;;;;;;6.07;2.70;;;;;;;;;;5023881;28;20111;-62
2023/07/12 13:15:49;;;;;;;6.13;2.72;;;;;;;;;;5026322;28;20103;-64
2023/07/12 13:18:25;;;;;;;8.82;2.97;;;;;;;;;;5023642;28;20445;-61
2023/07/12 13:20:56;;;;;;;4.88;2.78;;;;;;;;;;5026670;28;20092;-62
2023/07/12 13:23:26;;;;;;;6.53;2.65;;;;;;;;;;5021720;28;20103;-66
2023/07/12 13:26:07;;;;;;;5.53;2.72;;;;;;;;;;5024420;28;20057;-63
2023/07/12 13:28:37;;;;;;;4.95;2.90;;;;;;;;;;5024702;28;20049;-65
2023/07/12 13:31:05;;;;;;;5.05;2.72;;;;;;;;;;5025819;28;20073;-65
2023/07/12 13:33:34;;;;;;;4.97;2.35;;;;;;;;;;5024879;28;20700;-65
2023/07/12 13:36:02;;;;;;;5.85;2.80;;;;;;;;;;5019416;28;20049;-62
2023/07/12 13:38:34;;;;;;;6.00;2.97;;;;;;;;;;5026128;28;20130;-62
2023/07/12 13:41:05;;;;;;;4.63;2.72;;;;;;;;;;5029617;28;20495;-61
2023/07/12 13:43:38;;;;;;;4.03;2.25;;;;;;;;;;5024341;28;20490;-64
2023/07/12 13:46:12;;;;;;;7.03;2.10;;;;;;;;;;5017646;28;20079;-61
2023/07/12 13:48:42;;;;;;;4.10;1.73;;;;;;;;;;5020127;28;20045;-63
2023/07/12 13:51:17;;;;;;;2.75;1.23;;;;;;;;;;5021205;28;20885;-64
2023/07/12 13:53:46;;;;;;;3.78;1.00;;;;;;;;;;5018906;28;20049;-69
2023/07/12 13:56:14;;;;;;;2.67;1.25;;;;;;;;;;5023638;28;20482;-61
2023/07/12 13:58:47;;;;;;;2.13;1.13;;;;;;;;;;5021016;28;20639;-61
2023/07/12 14:01:35;;;;;;;4.63;1.20;;;;;;;;;;5022597;28;20041;-61
2023/07/12 14:04:11;;;;;;;2.03;1.13;;;;;;;;;;5018761;28;20065;-64
2023/07/12 14:06:50;;;;;;;2.78;1.30;;;;;;;;;;5020009;28;20073;-64
2023/07/12 14:09:22;;;;;;;3.30;1.13;;;;;;;;;;5019352;28;20190;-61
2023/07/12 14:11:51;;;;;;;4.20;0.90;;;;;;;;;;5015314;28;20045;-65
2023/07/12 14:14:20;;;;;;;7.10;1.95;;;;;;;;;;5018191;28;20096;-60
2023/07/12 14:16:49;;;;;;;6.05;1.30;;;;;;;;;;5020114;28;20061;-63
2023/07/12 14:19:17;;;;;;;7.38;2.00;;;;;;;;;;5015235;28;20052;-61
2023/07/12 14:21:46;;;;;;;6.53;1.75;;;;;;;;;;5021780;28;20126;-67
2023/07/12 14:24:15;;;;;;;5.03;1.80;;;;;;;;;;5023806;28;20556;-64
2023/07/12 14:26:43;;;;;;;6.38;1.77;;;;;;;;;;5024410;28;20049;-60
2023/07/12 14:29:11;;;;;;;6.35;2.13;;;;;;;;;;5021107;28;20054;-62
2023/07/12 14:32:01;;;;;;;4.20;1.83;;;;;;;;;;5021322;28;20107;-68
2023/07/12 14:34:30;;;;;;;3.72;1.60;;;;;;;;;;5019071;28;20045;-66
2023/07/12 14:36:58;;;;;;;4.05;1.63;;;;;;;;;;5022409;28;20050;-62
2023/07/12 14:39:27;;;;;;;3.80;1.65;;;;;;;;;;5021907;28;20037;-62
2023/07/12 14:41:55;;;;;;;2.67;1.45;;;;;;;;;;5018297;28;20687;-60
2023/07/12 14:44:24;;;;;;;3.67;1.67;;;;;;;;;;5022616;28;20128;-62
2023/07/12 14:46:53;;;;;;;4.05;2.00;;;;;;;;;;5026992;28;20184;-60
2023/07/12 14:49:22;;;;;;;4.50;1.85;;;;;;;;;;5020172;28;20406;-67
2023/07/12 14:51:51;;;;;;;2.67;1.40;;;;;;;;;;5016670;28;20068;-65
2023/07/12 14:54:37;;;;;;;3.45;1.40;;;;;;;;;;5023507;28;20084;-60
2023/07/12 14:57:25;;;;;;;3.22;1.30;;;;;;;;;;5016228;28;20545;-61
2023/07/12 15:00:15;;;;;;;4.28;1.50;;;;;;;;;;5019323;28;20063;-67
2023/07/12 15:02:45;;;;;;;2.20;1.40;;;;;;;;;;5018652;28;20045;-60